KSHV/SHV METAR and TAF weather

Enter ICAO airport designator
Station Type Date Time Source
KSHV METAR 2018/12/15 01:56 UTC NOAA

KSHV 150156Z 30010KT 10SM -RA FEW006 BKN009 OVC020 11/10 A2990 RMK AO2 CIG 008V013 SLP123 P0005 T01060100


Station Type Date Time Source
KSHV Decoded METAR 2018/12/15 01:56 UTC NOAA

SHREVEPORT REGIONAL AIRPORT, LA, United States (KSHV) 32-27N 93-50W 80M
Dec 14, 2018 - 08:56 PM EST / 2018.12.15 0156 UTC
Wind: from the WNW (300 degrees) at 12 MPH (10 KT):0
Visibility: 10 mile(s):0
Sky conditions: overcast
Weather: light rain
Precipitation last hour: 0.05 inches
Temperature: 51.1 F (10.6 C)
Dew Point: 50.0 F (10.0 C)
Relative Humidity: 96%
Pressure (altimeter): 29.9 in. Hg (1012 hPa)
ob: KSHV 150156Z 30010KT 10SM -RA FEW006 BKN009 OVC020 11/10 A2990 RMK AO2 CIG 008V013 SLP123 P0005 T01060100
cycle: 2

Station Type Date Time Source
KSHV TAF 2018/12/15 01:39 UTC NOAA

TAF
AMD KSHV 150037Z 1501/1524 30012KT P6SM SCT007 BKN015 OVC025
TEMPO 1501/1504 5SM -SHRA BR BKN007 OVC015
FM150400 32011KT P6SM BKN007 OVC015
FM151800 31010KT P6SM BKN025


Example: see airport list